Time;durP1;ratioP1;P1;durP2;ratioP2;P2;SDS_P1;SDS_P2;PMS_P1;PMS_P2;Temp;Humidity;BMP_temperature;BMP_pressure;BME280_temperature;BME280_humidity;BME280_pressure;Samples;Min_cycle;Max_cycle;Signal;HPM_P1;HPM_P2
2021/03/22 00:01:11;;;;;;;26.73;4.77;;;6.50;99.90;;;;;;5128955;28;20170;-67
2021/03/22 00:03:37;;;;;;;18.57;4.63;;;6.60;99.90;;;;;;5129219;28;20169;-67
2021/03/22 00:06:03;;;;;;;24.40;5.23;;;6.70;99.90;;;;;;5126189;28;20194;-67
2021/03/22 00:08:30;;;;;;;25.13;5.43;;;6.80;99.90;;;;;;5128672;28;20170;-66
2021/03/22 00:10:56;;;;;;;22.50;5.67;;;6.80;99.90;;;;;;5128665;28;20159;-66
2021/03/22 00:13:24;;;;;;;26.70;5.07;;;6.80;99.90;;;;;;5128732;28;20516;-67
2021/03/22 00:15:51;;;;;;;23.70;6.30;;;6.90;99.90;;;;;;5126349;28;20276;-67
2021/03/22 00:18:21;;;;;;;25.77;5.20;;;6.90;99.90;;;;;;5128567;28;20170;-67
2021/03/22 00:20:47;;;;;;;35.90;5.07;;;6.90;99.90;;;;;;5128800;28;20199;-66
2021/03/22 00:23:13;;;;;;;20.30;4.23;;;6.80;99.90;;;;;;5128162;28;20655;-67
2021/03/22 00:25:39;;;;;;;18.07;4.63;;;6.70;99.90;;;;;;5125831;28;20198;-66
2021/03/22 00:28:05;;;;;;;31.70;5.30;;;6.70;99.90;;;;;;5128066;28;20159;-66
2021/03/22 00:30:37;;;;;;;27.83;5.10;;;6.70;99.90;;;;;;5128539;28;20711;-66
2021/03/22 00:33:04;;;;;;;24.87;4.83;;;6.60;99.90;;;;;;5127106;28;20155;-67
2021/03/22 00:35:30;;;;;;;24.30;4.83;;;6.60;99.90;;;;;;5125890;28;20184;-67
2021/03/22 00:37:56;;;;;;;23.63;5.20;;;6.50;99.90;;;;;;5127750;28;20171;-67
2021/03/22 00:40:27;;;;;;;21.10;4.60;;;6.50;99.90;;;;;;5128463;28;20159;-67
2021/03/22 00:42:53;;;;;;;25.00;4.97;;;6.50;99.90;;;;;;5128315;28;20166;-67
2021/03/22 00:45:21;;;;;;;24.30;4.73;;;6.50;99.90;;;;;;5125823;28;20402;-67
2021/03/22 00:47:48;;;;;;;19.63;4.77;;;6.40;99.90;;;;;;5127920;28;20671;-66
2021/03/22 00:50:25;;;;;;;27.13;5.03;;;6.30;99.90;;;;;;5128216;28;20155;-67
2021/03/22 00:52:51;;;;;;;19.93;4.57;;;6.20;99.90;;;;;;5127691;28;20246;-67
2021/03/22 00:55:16;;;;;;;28.13;5.90;;;6.30;99.90;;;;;;5125487;28;20163;-67
2021/03/22 00:57:42;;;;;;;24.33;4.80;;;6.30;99.90;;;;;;5127995;28;20257;-67
2021/03/22 01:00:10;;;;;;;25.97;5.00;;;6.30;99.90;;;;;;5127997;28;20272;-67
2021/03/22 01:02:36;;;;;;;22.00;4.80;;;6.40;99.90;;;;;;5127976;28;20189;-66
2021/03/22 01:05:03;;;;;;;21.80;5.10;;;6.40;99.90;;;;;;5126432;28;20182;-67
2021/03/22 01:07:29;;;;;;;35.90;5.33;;;6.50;99.90;;;;;;5126531;28;20166;-67
2021/03/22 01:09:54;;;;;;;20.73;4.90;;;6.50;99.90;;;;;;5127652;28;20162;-66
2021/03/22 01:12:20;;;;;;;22.50;4.63;;;6.50;99.90;;;;;;5127836;28;20276;-67
2021/03/22 01:14:46;;;;;;;23.87;5.90;;;6.50;99.90;;;;;;5127760;28;20154;-67
2021/03/22 01:17:11;;;;;;;22.67;5.27;;;6.50;99.90;;;;;;5124921;28;20159;-67
2021/03/22 01:19:37;;;;;;;25.90;6.03;;;6.60;99.90;;;;;;5127667;28;20162;-67
2021/03/22 01:22:03;;;;;;;24.87;5.13;;;6.60;99.90;;;;;;5127489;28;20201;-66
2021/03/22 01:24:33;;;;;;;27.10;4.53;;;6.60;99.90;;;;;;5127422;28;20183;-67
2021/03/22 01:27:04;;;;;;;15.53;4.77;;;6.50;99.90;;;;;;5124721;28;20647;-67
2021/03/22 01:29:39;;;;;;;18.50;5.07;;;6.50;99.90;;;;;;5127525;28;20181;-67
2021/03/22 01:32:10;;;;;;;25.07;5.30;;;6.50;99.90;;;;;;5127451;28;20150;-67
2021/03/22 01:34:36;;;;;;;35.60;5.73;;;6.50;99.90;;;;;;5127466;28;20239;-67
2021/03/22 01:37:03;;;;;;;27.03;5.10;;;6.40;99.90;;;;;;5124414;28;20226;-67
2021/03/22 01:39:33;;;;;;;24.93;5.27;;;6.40;99.90;;;;;;5126984;28;20234;-67
2021/03/22 01:41:58;;;;;;;30.93;5.23;;;6.50;99.90;;;;;;5127348;28;20157;-67
2021/03/22 01:45:01;;;;;;;29.20;5.60;;;6.50;99.90;;;;;;5127174;28;20175;-66
2021/03/22 01:47:32;;;;;;;27.17;7.47;;;6.30;99.90;;;;;;5125179;28;20182;-66
2021/03/22 01:50:09;;;;;;;16.27;4.70;;;6.30;99.90;;;;;;5127065;28;20162;-67
2021/03/22 01:52:38;;;;;;;28.87;6.03;;;6.30;99.90;;;;;;5126930;28;20154;-67
2021/03/22 01:55:06;;;;;;;19.73;5.17;;;6.30;99.90;;;;;;5125314;28;20159;-67
2021/03/22 01:57:40;;;;;;;19.33;5.30;;;6.30;99.90;;;;;;5125975;28;20245;-67
2021/03/22 02:00:35;;;;;;;27.00;5.83;;;6.40;99.90;;;;;;5126166;28;20174;-67
2021/03/22 02:03:17;;;;;;;29.80;5.70;;;6.50;99.90;;;;;;5126900;28;20173;-66
2021/03/22 02:05:47;;;;;;;27.57;6.13;;;6.50;99.90;;;;;;5124270;28;20207;-66
2021/03/22 02:08:15;;;;;;;23.47;5.57;;;6.50;99.90;;;;;;5126252;28;20232;-67
2021/03/22 02:10:43;;;;;;;28.17;5.60;;;6.50;99.90;;;;;;5126844;28;20194;-66
2021/03/22 02:13:10;;;;;;;27.03;6.13;;;6.50;99.90;;;;;;5126486;28;20461;-66
2021/03/22 02:15:39;;;;;;;28.57;5.80;;;6.60;99.90;;;;;;5123898;28;20166;-66
2021/03/22 02:18:31;;;;;;;16.80;5.53;;;6.60;99.90;;;;;;5126224;28;20206;-67
2021/03/22 02:21:34;;;;;;;22.37;6.47;;;6.60;99.90;;;;;;5126505;28;20154;-66
2021/03/22 02:24:19;;;;;;;28.80;7.30;;;6.40;99.90;;;;;;5126111;28;20639;-67
2021/03/22 02:26:57;;;;;;;26.50;6.60;;;6.30;99.90;;;;;;5091822;28;20292;-67
2021/03/22 02:29:35;;;;;;;27.27;6.20;;;6.20;99.90;;;;;;5126500;28;20154;-66
2021/03/22 02:32:39;;;;;;;26.20;6.17;;;6.10;99.90;;;;;;5126516;28;20174;-66
2021/03/22 02:35:18;;;;;;;35.40;5.70;;;6.00;99.90;;;;;;5124616;28;20181;-66
2021/03/22 02:37:58;;;;;;;22.13;6.30;;;6.00;99.90;;;;;;5126049;28;20190;-66
2021/03/22 02:40:33;;;;;;;18.87;5.80;;;6.10;99.90;;;;;;5126562;28;20163;-67
2021/03/22 02:43:04;;;;;;;19.97;7.00;;;6.10;99.90;;;;;;5126211;28;20207;-67
2021/03/22 02:45:42;;;;;;;29.17;7.57;;;6.00;99.90;;;;;;5123652;28;20194;-66
2021/03/22 02:48:20;;;;;;;24.20;6.63;;;6.00;99.90;;;;;;5126027;28;20190;-67
2021/03/22 02:50:47;;;;;;;27.13;7.20;;;5.90;99.90;;;;;;5126376;28;20169;-66
2021/03/22 02:53:37;;;;;;;25.00;6.90;;;5.80;99.90;;;;;;5125939;28;20211;-67
2021/03/22 02:56:32;;;;;;;25.43;6.20;;;5.80;99.90;;;;;;5123510;28;20245;-66
2021/03/22 02:59:08;;;;;;;26.47;6.80;;;5.80;99.90;;;;;;5119189;28;20198;-67
2021/03/22 03:01:41;;;;;;;39.33;7.73;;;5.70;99.90;;;;;;5126303;28;20185;-66
2021/03/22 03:04:10;;;;;;;27.17;7.40;;;5.70;99.90;;;;;;5126116;28;20238;-66
2021/03/22 03:06:50;;;;;;;32.53;7.93;;;5.70;99.90;;;;;;5123316;28;20593;-66
2021/03/22 03:09:17;;;;;;;35.70;7.50;;;5.80;99.90;;;;;;5125847;28;20175;-66
2021/03/22 03:11:44;;;;;;;28.20;7.47;;;5.80;99.90;;;;;;5129321;28;20174;-66
2021/03/22 03:14:09;;;;;;;43.73;8.70;;;5.70;99.90;;;;;;5128665;28;20695;-67
2021/03/22 03:16:35;;;;;;;36.43;8.77;;;5.70;99.90;;;;;;5127408;28;20166;-66
2021/03/22 03:19:01;;;;;;;33.73;8.73;;;5.80;99.90;;;;;;5129732;28;20166;-66
2021/03/22 03:21:27;;;;;;;31.93;7.63;;;5.70;99.90;;;;;;5130082;28;20169;-67
2021/03/22 03:23:53;;;;;;;31.57;7.50;;;5.70;99.90;;;;;;5129412;28;20189;-66
2021/03/22 03:26:19;;;;;;;24.23;7.83;;;5.70;99.90;;;;;;5127253;28;20205;-66
2021/03/22 03:28:45;;;;;;;27.27;8.30;;;5.70;99.90;;;;;;5128374;28;20174;-66
2021/03/22 03:31:11;;;;;;;24.83;7.50;;;5.70;99.90;;;;;;5129891;28;20210;-66
2021/03/22 03:33:37;;;;;;;35.07;7.80;;;5.70;99.90;;;;;;5129707;28;20167;-66
2021/03/22 03:36:03;;;;;;;29.60;7.43;;;5.70;99.90;;;;;;5127040;28;20218;-67
2021/03/22 03:38:28;;;;;;;29.63;7.20;;;5.80;99.90;;;;;;5129533;28;20198;-66
2021/03/22 03:40:54;;;;;;;43.57;10.83;;;5.90;99.90;;;;;;5129492;28;20214;-66
2021/03/22 03:43:20;;;;;;;27.00;7.63;;;5.90;99.90;;;;;;5129625;28;20249;-66
2021/03/22 03:45:48;;;;;;;30.93;8.30;;;5.90;99.90;;;;;;5127037;28;20273;-66
2021/03/22 03:48:18;;;;;;;29.93;8.33;;;5.90;99.90;;;;;;5129273;28;20190;-66
2021/03/22 03:50:44;;;;;;;34.20;7.67;;;5.90;99.90;;;;;;5129517;28;20165;-67
2021/03/22 03:53:11;;;;;;;35.33;8.70;;;6.00;99.90;;;;;;5129187;28;20253;-66
2021/03/22 03:55:38;;;;;;;27.13;7.77;;;6.20;99.90;;;;;;5126742;28;20217;-67
2021/03/22 03:58:04;;;;;;;41.35;12.15;;;6.20;99.90;;;;;;5128299;28;20927;-66
2021/03/22 04:00:41;;;;;;;36.27;10.50;;;6.30;99.90;;;;;;5128022;28;20174;-67
2021/03/22 04:03:33;;;;;;;26.03;9.07;;;6.40;99.90;;;;;;5129079;28;20173;-66
2021/03/22 04:06:11;;;;;;;28.87;9.70;;;6.50;99.90;;;;;;5126394;28;20194;-67
2021/03/22 04:08:40;;;;;;;26.70;8.53;;;6.60;99.90;;;;;;5128644;28;20177;-67
2021/03/22 04:11:09;;;;;;;36.23;7.73;;;6.70;99.90;;;;;;5128996;28;20238;-67
2021/03/22 04:13:36;;;;;;;25.40;8.10;;;6.80;99.90;;;;;;5128925;28;20163;-67
2021/03/22 04:16:03;;;;;;;34.20;9.53;;;6.90;99.90;;;;;;5126206;28;20185;-67
2021/03/22 04:18:29;;;;;;;40.13;9.53;;;6.90;99.90;;;;;;5128955;28;20216;-67
2021/03/22 04:20:54;;;;;;;26.37;8.83;;;6.80;99.90;;;;;;5128737;28;20162;-67
2021/03/22 04:23:20;;;;;;;31.23;9.63;;;6.90;99.90;;;;;;5127946;28;20171;-66
2021/03/22 04:25:46;;;;;;;26.67;9.30;;;7.00;99.90;;;;;;5126326;28;20182;-67
2021/03/22 04:28:11;;;;;;;32.33;9.00;;;7.00;99.90;;;;;;5127074;28;20167;-67
2021/03/22 04:30:37;;;;;;;28.87;9.27;;;7.00;99.90;;;;;;5128702;28;20167;-67
2021/03/22 04:33:03;;;;;;;27.93;9.37;;;6.90;99.90;;;;;;5128494;28;20174;-66
2021/03/22 04:35:29;;;;;;;30.13;8.43;;;6.90;99.90;;;;;;5126166;28;20222;-67
2021/03/22 04:37:55;;;;;;;32.53;9.33;;;6.90;99.90;;;;;;5127786;28;20174;-67
2021/03/22 04:40:25;;;;;;;28.93;9.10;;;7.10;99.90;;;;;;5128421;28;20167;-68
2021/03/22 04:42:51;;;;;;;33.50;8.27;;;7.10;99.90;;;;;;5128266;28;20159;-67
2021/03/22 04:45:24;;;;;;;38.40;9.40;;;7.00;99.90;;;;;;5125771;28;20341;-67
2021/03/22 04:47:49;;;;;;;27.93;8.97;;;7.00;99.90;;;;;;5128045;28;20250;-67
2021/03/22 04:50:18;;;;;;;41.37;8.60;;;7.00;99.90;;;;;;5128228;28;20161;-67
2021/03/22 04:52:44;;;;;;;37.40;11.93;;;7.00;99.90;;;;;;5126974;28;20410;-67
2021/03/22 04:55:10;;;;;;;38.70;10.03;;;7.20;99.90;;;;;;5125993;28;20205;-67
2021/03/22 04:57:36;;;;;;;27.13;8.87;;;7.10;99.90;;;;;;5126394;28;20207;-67
2021/03/22 05:00:09;;;;;;;20.53;8.63;;;7.10;99.90;;;;;;5127895;28;20208;-66
2021/03/22 05:02:35;;;;;;;38.10;12.68;;;7.10;99.90;;;;;;5126782;28;20414;-67
2021/03/22 05:05:01;;;;;;;28.20;10.13;;;7.10;99.90;;;;;;5126623;28;20166;-67
2021/03/22 05:07:27;;;;;;;36.37;9.50;;;7.00;99.90;;;;;;5126316;28;20509;-65
2021/03/22 05:09:52;;;;;;;25.67;8.73;;;7.00;99.90;;;;;;5127508;28;20196;-67
2021/03/22 05:12:18;;;;;;;34.50;8.30;;;7.00;99.90;;;;;;5127985;28;20182;-66
2021/03/22 05:14:44;;;;;;;27.77;8.47;;;6.90;99.90;;;;;;5126595;28;20155;-67
2021/03/22 05:17:09;;;;;;;25.77;8.27;;;7.00;99.90;;;;;;5124968;28;20163;-67
2021/03/22 05:19:35;;;;;;;28.07;8.07;;;7.10;99.90;;;;;;5127702;28;20227;-66
2021/03/22 05:22:02;;;;;;;27.80;8.13;;;7.20;99.90;;;;;;5127849;28;20155;-67
2021/03/22 05:24:27;;;;;;;22.83;8.20;;;7.00;99.90;;;;;;5127283;28;20192;-67
2021/03/22 05:26:54;;;;;;;30.53;9.77;;;7.10;99.90;;;;;;5123633;28;20455;-66
2021/03/22 05:29:22;;;;;;;26.23;8.77;;;7.30;99.90;;;;;;5127477;28;20169;-67
2021/03/22 05:31:48;;;;;;;19.20;8.17;;;7.10;99.90;;;;;;5127390;28;20178;-66
2021/03/22 05:34:14;;;;;;;22.30;7.97;;;7.10;99.90;;;;;;5126268;28;20613;-67
2021/03/22 05:36:40;;;;;;;18.10;7.40;;;7.10;99.90;;;;;;5124667;28;20166;-67
2021/03/22 05:39:06;;;;;;;27.20;7.87;;;7.00;99.90;;;;;;5126789;28;20249;-66
2021/03/22 05:41:53;;;;;;;20.00;6.97;;;6.90;99.90;;;;;;5127271;28;20163;-67
2021/03/22 05:44:44;;;;;;;24.27;7.00;;;7.00;99.90;;;;;;5126912;28;20208;-66
2021/03/22 05:47:21;;;;;;;25.73;7.87;;;7.00;99.90;;;;;;5122900;28;20187;-67
2021/03/22 05:49:58;;;;;;;17.87;6.23;;;7.10;99.90;;;;;;5125813;28;20162;-67
2021/03/22 05:52:48;;;;;;;28.27;7.07;;;7.00;99.90;;;;;;5126091;28;20167;-67
2021/03/22 05:55:35;;;;;;;19.70;7.50;;;7.10;99.90;;;;;;5123984;28;20258;-67
2021/03/22 05:58:03;;;;;;;25.73;7.17;;;7.20;99.90;;;;;;5125958;28;20190;-67
2021/03/22 06:01:02;;;;;;;23.73;7.30;;;7.20;99.90;;;;;;5126984;28;20163;-67
2021/03/22 06:03:43;;;;;;;18.00;6.27;;;7.20;99.90;;;;;;5126237;28;20195;-67
2021/03/22 06:06:14;;;;;;;15.37;6.93;;;7.30;99.90;;;;;;5124000;28;20368;-67
2021/03/22 06:08:49;;;;;;;20.77;6.27;;;7.30;99.90;;;;;;5126096;28;20220;-67
2021/03/22 06:11:32;;;;;;;14.00;5.83;;;7.20;99.90;;;;;;5126783;28;20162;-67
2021/03/22 06:14:08;;;;;;;24.57;6.87;;;7.30;99.90;;;;;;5126147;28;20243;-67
2021/03/22 06:16:38;;;;;;;18.47;7.00;;;7.40;99.90;;;;;;5124044;28;20189;-67
2021/03/22 06:19:12;;;;;;;15.50;7.13;;;7.40;99.90;;;;;;5125957;28;20198;-67
2021/03/22 06:21:43;;;;;;;27.23;5.97;;;7.50;99.90;;;;;;5126545;28;20191;-67
2021/03/22 06:24:20;;;;;;;21.70;6.50;;;7.70;99.90;;;;;;5126195;28;20159;-67
2021/03/22 06:26:55;;;;;;;22.30;6.77;;;7.70;99.90;;;;;;5123617;28;20231;-67
2021/03/22 06:29:23;;;;;;;19.00;6.33;;;7.70;99.90;;;;;;5125069;28;20182;-68
2021/03/22 06:31:51;;;;;;;26.63;7.07;;;7.60;99.90;;;;;;5126087;28;20162;-68
2021/03/22 06:34:24;;;;;;;23.97;8.30;;;7.60;99.90;;;;;;5125152;28;20422;-68
2021/03/22 06:36:50;;;;;;;23.87;7.90;;;7.80;99.90;;;;;;5123206;28;20226;-67
2021/03/22 06:39:16;;;;;;;21.83;7.40;;;7.80;99.90;;;;;;5125759;28;20174;-68
2021/03/22 06:41:51;;;;;;;23.77;7.47;;;7.70;99.90;;;;;;5125930;28;20430;-68
2021/03/22 06:44:32;;;;;;;17.57;7.10;;;7.70;99.90;;;;;;5126170;28;20222;-68
2021/03/22 06:47:03;;;;;;;14.13;5.70;;;7.80;99.90;;;;;;5126872;28;20189;-68
2021/03/22 06:49:31;;;;;;;17.93;6.43;;;7.70;99.90;;;;;;5130452;28;20172;-68
2021/03/22 06:52:22;;;;;;;18.70;7.50;;;7.60;99.90;;;;;;5129853;28;20397;-68
2021/03/22 06:54:56;;;;;;;20.07;6.53;;;7.80;99.90;;;;;;5122369;28;20752;-68
2021/03/22 06:57:27;;;;;;;21.37;6.70;;;8.00;99.90;;;;;;5127968;28;20210;-68
2021/03/22 07:00:08;;;;;;;23.93;7.20;;;8.00;99.90;;;;;;5129984;28;20191;-68
2021/03/22 07:02:50;;;;;;;20.17;6.83;;;8.10;99.90;;;;;;5130190;28;20151;-68
2021/03/22 07:05:27;;;;;;;16.77;7.20;;;8.10;99.90;;;;;;5127513;28;20227;-67
2021/03/22 07:08:08;;;;;;;17.13;6.23;;;8.10;99.90;;;;;;5129157;28;20280;-68
2021/03/22 07:10:35;;;;;;;25.40;8.23;;;8.20;99.90;;;;;;5129908;28;20147;-67
2021/03/22 07:13:25;;;;;;;28.43;7.73;;;8.30;99.90;;;;;;5129529;28;20184;-68
2021/03/22 07:15:56;;;;;;;27.73;8.50;;;8.20;99.90;;;;;;5126887;28;20170;-68
2021/03/22 07:18:27;;;;;;;30.73;8.53;;;8.20;99.90;;;;;;5129611;28;20647;-68
2021/03/22 07:21:05;;;;;;;24.40;7.50;;;8.30;99.90;;;;;;5129667;28;20172;-68
2021/03/22 07:23:49;;;;;;;25.93;8.60;;;8.10;99.90;;;;;;5129579;28;20182;-68
2021/03/22 07:26:21;;;;;;;23.30;7.60;;;8.20;99.90;;;;;;5127165;28;20187;-68
2021/03/22 07:29:20;;;;;;;25.40;7.97;;;8.20;99.90;;;;;;5129611;28;20174;-68
2021/03/22 07:32:33;;;;;;;28.30;9.10;;;8.20;99.90;;;;;;5130033;28;20159;-68
2021/03/22 07:35:42;;;;;;;28.83;9.77;;;8.30;99.90;;;;;;5114842;28;20239;-68
2021/03/22 07:38:35;;;;;;;23.80;9.17;;;8.20;99.90;;;;;;5127704;28;20165;-67
2021/03/22 07:41:23;;;;;;;23.40;8.57;;;8.30;99.90;;;;;;5129384;28;20164;-67
2021/03/22 07:44:28;;;;;;;17.23;8.13;;;8.50;99.90;;;;;;5129472;28;20223;-67
2021/03/22 07:47:11;;;;;;;25.47;7.07;;;8.50;99.90;;;;;;5126365;28;20190;-67
2021/03/22 07:49:49;;;;;;;25.30;8.20;;;8.30;99.90;;;;;;5129270;28;20246;-67
2021/03/22 07:52:15;;;;;;;20.73;7.07;;;8.20;99.90;;;;;;5129350;28;20162;-67
2021/03/22 07:54:54;;;;;;;18.50;7.27;;;8.30;99.90;;;;;;5128904;28;20185;-67
2021/03/22 07:57:34;;;;;;;24.63;8.03;;;8.10;99.90;;;;;;5125856;28;20225;-67
2021/03/22 08:00:12;;;;;;;23.10;7.43;;;8.30;99.90;;;;;;5129025;28;20166;-67
2021/03/22 08:02:54;;;;;;;21.67;7.60;;;8.40;99.90;;;;;;5129168;28;20158;-67
2021/03/22 08:06:01;;;;;;;23.67;8.53;;;8.30;99.90;;;;;;5126493;28;20477;-67
2021/03/22 08:09:10;;;;;;;24.07;6.80;;;8.30;99.90;;;;;;5114719;28;20182;-67
2021/03/22 08:11:52;;;;;;;21.53;7.43;;;8.20;99.90;;;;;;5128978;28;20159;-67
2021/03/22 08:14:28;;;;;;;18.97;7.00;;;8.30;99.90;;;;;;5128734;28;20159;-67
2021/03/22 08:17:08;;;;;;;24.53;8.30;;;8.30;99.90;;;;;;5126013;28;20162;-67
2021/03/22 08:19:42;;;;;;;26.70;7.67;;;8.40;99.90;;;;;;5128650;28;20167;-67
2021/03/22 08:22:14;;;;;;;25.00;7.30;;;8.50;99.90;;;;;;5128502;28;20158;-67
2021/03/22 08:25:17;;;;;;;23.67;8.93;;;8.40;99.90;;;;;;5128403;28;20174;-67
2021/03/22 08:27:55;;;;;;;19.13;8.00;;;8.40;99.90;;;;;;5128554;28;20187;-67
2021/03/22 08:30:45;;;;;;;20.77;7.83;;;8.50;99.90;;;;;;5128636;28;20166;-67
2021/03/22 08:33:52;;;;;;;20.70;8.17;;;8.70;99.90;;;;;;5127750;28;20150;-67
2021/03/22 08:36:40;;;;;;;29.20;10.03;;;8.80;99.90;;;;;;5117911;28;20170;-67
2021/03/22 08:39:15;;;;;;;22.67;8.27;;;8.70;99.90;;;;;;5127180;28;20209;-67
2021/03/22 08:41:56;;;;;;;21.97;8.50;;;8.50;99.90;;;;;;5128056;28;20170;-67
2021/03/22 08:44:29;;;;;;;21.90;9.53;;;8.70;99.90;;;;;;5128127;28;20171;-67
2021/03/22 08:47:19;;;;;;;30.57;9.93;;;8.90;99.90;;;;;;5125351;28;20199;-67
2021/03/22 08:49:55;;;;;;;26.57;10.00;;;9.10;99.90;;;;;;5127987;28;20420;-67
2021/03/22 08:52:30;;;;;;;23.40;7.83;;;9.30;99.90;;;;;;5127826;28;20169;-67
2021/03/22 08:55:01;;;;;;;23.03;8.37;;;9.20;99.90;;;;;;5126968;28;20162;-67
2021/03/22 08:57:31;;;;;;;24.43;8.77;;;9.30;99.90;;;;;;5125120;28;20237;-67
2021/03/22 09:00:22;;;;;;;22.97;9.20;;;9.40;99.90;;;;;;5127537;28;20201;-67
2021/03/22 09:02:56;;;;;;;23.17;7.97;;;9.40;99.90;;;;;;5127891;28;20230;-67
2021/03/22 09:05:24;;;;;;;15.17;6.97;;;9.40;99.90;;;;;;5125116;28;20917;-67
2021/03/22 09:07:50;;;;;;;20.70;6.20;;;9.40;99.90;;;;;;5126856;28;20234;-67
2021/03/22 09:10:27;;;;;;;18.97;6.50;;;9.40;99.90;;;;;;5127592;28;20167;-68
2021/03/22 09:13:05;;;;;;;18.93;6.80;;;9.50;99.90;;;;;;5127376;28;20159;-67
2021/03/22 09:15:39;;;;;;;21.37;6.20;;;9.40;99.90;;;;;;5125194;28;20295;-67
2021/03/22 09:18:05;;;;;;;24.33;7.67;;;9.20;99.90;;;;;;5127321;28;20166;-67
2021/03/22 09:20:52;;;;;;;17.80;7.43;;;9.10;99.90;;;;;;5127374;28;20238;-67
2021/03/22 09:23:30;;;;;;;28.10;7.33;;;9.20;99.90;;;;;;5127009;28;20194;-67
2021/03/22 09:26:00;;;;;;;14.57;6.33;;;9.20;99.90;;;;;;5124591;28;20205;-67
2021/03/22 09:28:26;;;;;;;16.43;6.90;;;9.20;99.90;;;;;;5127254;28;20190;-68
2021/03/22 09:30:56;;;;;;;19.83;7.40;;;9.20;99.90;;;;;;5127008;28;20163;-67
2021/03/22 09:34:00;;;;;;;20.40;7.10;;;9.20;99.90;;;;;;5126974;28;20162;-66
2021/03/22 09:36:41;;;;;;;13.07;5.93;;;9.40;99.90;;;;;;5124423;28;20173;-67
2021/03/22 09:39:18;;;;;;;20.33;6.93;;;9.30;99.90;;;;;;5126207;28;20639;-67
2021/03/22 09:42:12;;;;;;;18.97;6.17;;;9.00;99.90;;;;;;5127167;28;20159;-67
2021/03/22 09:44:58;;;;;;;19.30;6.70;;;9.10;99.90;;;;;;5126834;28;20171;-66
2021/03/22 09:47:35;;;;;;;16.30;5.63;;;9.10;99.90;;;;;;5114393;28;20186;-66
2021/03/22 09:50:21;;;;;;;13.43;5.47;;;9.10;99.90;;;;;;5126606;28;20226;-67
2021/03/22 09:52:53;;;;;;;15.13;6.03;;;9.00;99.90;;;;;;5126467;28;20154;-66
2021/03/22 09:55:27;;;;;;;15.10;5.80;;;9.20;99.90;;;;;;5124242;28;20438;-67
2021/03/22 09:57:55;;;;;;;16.70;5.27;;;9.20;99.90;;;;;;5126239;28;20240;-67
2021/03/22 10:00:33;;;;;;;21.37;5.17;;;9.10;99.90;;;;;;5126609;28;20234;-67
2021/03/22 10:03:18;;;;;;;20.33;5.07;;;9.30;99.90;;;;;;5126277;28;20158;-67
2021/03/22 10:05:47;;;;;;;10.13;4.37;;;9.50;99.90;;;;;;5123925;28;20217;-67
2021/03/22 10:08:15;;;;;;;12.53;3.50;;;9.70;99.90;;;;;;5126204;28;20166;-67
2021/03/22 10:10:53;;;;;;;19.03;4.37;;;9.80;99.90;;;;;;5126037;28;20163;-66
2021/03/22 10:13:26;;;;;;;16.77;4.20;;;9.80;99.90;;;;;;5126246;28;20380;-66
2021/03/22 10:15:59;;;;;;;8.13;4.23;;;9.70;99.90;;;;;;5123569;28;20170;-66
2021/03/22 10:18:30;;;;;;;11.23;3.60;;;9.60;99.90;;;;;;5126224;28;20247;-66
2021/03/22 10:21:15;;;;;;;9.80;4.10;;;9.40;99.90;;;;;;5125523;28;20216;-68
2021/03/22 10:23:58;;;;;;;18.53;4.70;;;9.40;99.90;;;;;;5125714;28;20174;-66
2021/03/22 10:26:35;;;;;;;8.13;3.93;;;9.30;99.90;;;;;;5123622;28;20190;-66
2021/03/22 10:29:14;;;;;;;10.97;3.97;;;9.20;99.90;;;;;;5125853;28;20167;-67
2021/03/22 10:31:40;;;;;;;13.70;4.60;;;9.50;99.90;;;;;;5126173;28;20154;-66
2021/03/22 10:34:17;;;;;;;19.27;4.23;;;9.60;99.90;;;;;;5125730;28;20159;-67
2021/03/22 10:36:43;;;;;;;15.70;4.17;;;9.70;99.90;;;;;;5123706;28;20160;-66
2021/03/22 10:39:23;;;;;;;12.47;4.20;;;9.70;99.90;;;;;;5125179;28;20268;-66
2021/03/22 10:41:49;;;;;;;20.23;5.80;;;9.90;99.90;;;;;;5125201;28;20888;-66
2021/03/22 10:44:14;;;;;;;20.87;6.10;;;10.20;99.90;;;;;;5126123;28;20174;-66
2021/03/22 10:46:41;;;;;;;18.87;5.87;;;10.10;99.90;;;;;;5122007;28;20198;-67
2021/03/22 10:49:23;;;;;;;15.50;6.50;;;9.60;99.90;;;;;;5125559;28;20197;-66
2021/03/22 10:51:52;;;;;;;23.77;8.37;;;9.60;99.90;;;;;;5125951;28;20794;-66
2021/03/22 10:54:20;;;;;;;15.37;5.40;;;9.60;99.90;;;;;;5125567;28;20189;-67
2021/03/22 10:56:45;;;;;;;17.77;5.47;;;9.80;99.90;;;;;;5123386;28;20227;-66
2021/03/22 10:59:20;;;;;;;15.53;4.97;;;9.70;99.90;;;;;;5125683;28;20163;-66
2021/03/22 11:01:48;;;;;;;20.63;6.47;;;9.60;99.90;;;;;;5126176;28;20165;-66
2021/03/22 11:04:35;;;;;;;14.40;5.73;;;9.70;99.90;;;;;;5125558;28;20469;-66
2021/03/22 11:07:16;;;;;;;8.43;4.43;;;9.70;99.90;;;;;;5123065;28;20190;-67
2021/03/22 11:09:56;;;;;;;13.47;3.33;;;9.90;99.90;;;;;;5125566;28;20170;-67
2021/03/22 11:12:22;;;;;;;5.20;2.53;;;9.70;99.90;;;;;;5125779;28;20159;-67
2021/03/22 11:15:00;;;;;;;10.93;3.63;;;9.30;99.90;;;;;;5125547;28;20162;-66
2021/03/22 11:17:26;;;;;;;7.17;2.60;;;8.90;99.90;;;;;;5124069;28;20162;-66
2021/03/22 11:19:52;;;;;;;12.37;2.33;;;8.90;99.90;;;;;;5125487;28;20167;-67
2021/03/22 11:22:24;;;;;;;8.53;2.50;;;8.80;99.90;;;;;;5125779;28;20194;-67
2021/03/22 11:24:51;;;;;;;13.00;3.20;;;8.80;99.90;;;;;;5125094;28;20639;-67
2021/03/22 11:27:17;;;;;;;8.23;3.37;;;8.80;99.90;;;;;;5122974;28;20244;-67
2021/03/22 11:29:59;;;;;;;14.90;3.70;;;8.80;99.90;;;;;;5125065;28;20163;-67
2021/03/22 11:32:28;;;;;;;7.40;3.10;;;9.00;99.90;;;;;;5127604;28;20155;-67
2021/03/22 11:34:55;;;;;;;9.10;3.13;;;9.10;99.90;;;;;;5128159;28;20155;-67
2021/03/22 11:37:31;;;;;;;5.77;2.47;;;9.40;99.90;;;;;;5126923;28;20167;-67
2021/03/22 11:40:26;;;;;;;11.03;2.77;;;9.80;99.90;;;;;;5128528;28;20230;-67
2021/03/22 11:43:23;;;;;;;17.73;3.80;;;10.10;99.90;;;;;;5126355;28;20175;-67
2021/03/22 11:45:49;;;;;;;15.13;3.40;;;9.90;99.90;;;;;;5125593;28;20229;-67
2021/03/22 11:48:21;;;;;;;9.90;3.80;;;10.10;99.90;;;;;;5127892;28;20201;-68
2021/03/22 11:50:58;;;;;;;10.67;3.03;;;10.40;99.90;;;;;;5129210;28;20170;-67
2021/03/22 11:53:25;;;;;;;12.00;3.50;;;10.70;99.90;;;;;;5128746;28;20175;-67
2021/03/22 11:55:56;;;;;;;11.63;3.70;;;11.00;99.90;;;;;;5126308;28;21499;-67
2021/03/22 11:58:38;;;;;;;7.77;2.63;;;11.60;99.90;;;;;;5128768;28;20536;-67
2021/03/22 12:01:25;;;;;;;14.05;4.47;;;11.60;99.90;;;;;;5128012;28;20411;-67
2021/03/22 12:04:15;;;;;;;11.80;3.42;;;11.70;99.90;;;;;;5128649;28;20165;-67
2021/03/22 12:06:58;;;;;;;7.53;2.70;;;11.70;99.90;;;;;;5125645;28;20225;-67
2021/03/22 12:09:25;;;;;;;7.63;3.00;;;11.10;99.90;;;;;;5128489;28;20588;-67
2021/03/22 12:11:52;;;;;;;6.97;3.63;;;10.60;99.90;;;;;;5128543;28;20159;-67
2021/03/22 12:14:18;;;;;;;5.87;2.43;;;10.20;99.90;;;;;;5128825;28;20163;-67
2021/03/22 12:16:44;;;;;;;9.13;2.67;;;9.90;99.90;;;;;;5126104;28;20616;-67
2021/03/22 12:19:21;;;;;;;7.57;2.53;;;10.10;99.90;;;;;;5128381;28;20177;-67
2021/03/22 12:21:47;;;;;;;12.80;2.30;;;10.00;99.90;;;;;;5128496;28;20173;-67
2021/03/22 12:24:15;;;;;;;8.27;2.30;;;9.50;99.90;;;;;;5127566;28;20174;-67
2021/03/22 12:26:41;;;;;;;8.53;2.03;;;9.40;99.90;;;;;;5125624;28;20202;-67
2021/03/22 12:29:07;;;;;;;6.60;2.07;;;9.60;99.90;;;;;;5128087;28;20170;-67
2021/03/22 12:31:40;;;;;;;7.73;2.43;;;9.50;99.90;;;;;;5127962;28;20547;-67
2021/03/22 12:34:08;;;;;;;13.43;2.77;;;9.60;99.90;;;;;;5127961;28;20616;-67
2021/03/22 12:36:35;;;;;;;8.40;2.40;;;9.70;99.90;;;;;;5124235;28;20174;-67
2021/03/22 12:39:22;;;;;;;5.63;2.90;;;9.60;99.90;;;;;;5127579;28;20242;-67
2021/03/22 12:41:50;;;;;;;7.40;2.97;;;9.80;99.90;;;;;;5117009;28;20264;-67
2021/03/22 12:44:16;;;;;;;5.40;3.00;;;9.80;99.90;;;;;;5127488;28;20166;-66
2021/03/22 12:46:42;;;;;;;11.10;3.33;;;9.70;99.90;;;;;;5125591;28;20208;-68
2021/03/22 12:49:15;;;;;;;13.13;3.10;;;9.90;99.90;;;;;;5127305;28;20163;-67
2021/03/22 12:51:41;;;;;;;10.93;3.37;;;9.80;99.90;;;;;;5128054;28;20154;-67
2021/03/22 12:54:06;;;;;;;10.77;2.73;;;9.90;99.90;;;;;;5127520;28;20163;-68
2021/03/22 12:56:32;;;;;;;12.50;4.00;;;10.20;99.90;;;;;;5125474;28;20271;-68
2021/03/22 12:58:58;;;;;;;7.93;3.33;;;10.20;99.90;;;;;;5126935;28;20410;-68
2021/03/22 13:01:24;;;;;;;9.33;3.00;;;10.60;99.90;;;;;;5127860;28;20532;-68
2021/03/22 13:03:51;;;;;;;8.40;2.77;;;10.70;99.90;;;;;;5127382;28;20212;-67
2021/03/22 13:06:17;;;;;;;8.57;2.70;;;10.70;99.90;;;;;;5125157;28;20231;-68
2021/03/22 13:08:43;;;;;;;13.17;3.13;;;10.80;99.90;;;;;;5127044;28;20167;-68
2021/03/22 13:11:10;;;;;;;7.90;2.77;;;10.50;99.90;;;;;;5127427;28;20162;-68
2021/03/22 13:13:36;;;;;;;10.03;3.20;;;10.60;99.90;;;;;;5127109;28;20215;-68
2021/03/22 13:16:02;;;;;;;7.97;3.43;;;10.50;99.90;;;;;;5124610;28;20223;-67
2021/03/22 13:18:33;;;;;;;12.87;3.60;;;10.70;99.90;;;;;;5126535;28;20166;-67